createdAt,value
2022-12-27T00:04:44.163Z,5.97
2022-12-27T00:09:52.760Z,5.63
2022-12-27T00:14:59.191Z,6.30
2022-12-27T00:20:11.358Z,5.43
2022-12-27T00:25:20.335Z,5.60
2022-12-27T00:30:27.092Z,5.22
2022-12-27T00:35:33.817Z,5.40
2022-12-27T00:40:43.757Z,5.43
2022-12-27T00:45:50.702Z,5.32
2022-12-27T00:51:01.393Z,5.22
2022-12-27T00:56:12.808Z,4.88
2022-12-27T01:01:22.813Z,4.95
2022-12-27T01:06:33.043Z,4.72
2022-12-27T01:11:42.845Z,4.40
2022-12-27T01:16:49.642Z,4.15
2022-12-27T01:21:56.703Z,4.25
2022-12-27T01:27:05.061Z,4.35
2022-12-27T01:32:12.017Z,4.25
2022-12-27T01:37:19.107Z,4.13
2022-12-27T01:42:44.718Z,4.35
2022-12-27T01:48:01.189Z,4.05
2022-12-27T01:53:14.637Z,4.60
2022-12-27T01:58:29.302Z,3.47
2022-12-27T02:03:39.269Z,4.13
2022-12-27T02:08:55.335Z,4.70
2022-12-27T02:14:03.715Z,4.32
2022-12-27T02:19:44.714Z,3.73
2022-12-27T02:25:24.767Z,3.83
2022-12-27T02:30:35.381Z,3.90
2022-12-27T02:35:46.933Z,3.65
2022-12-27T02:41:12.458Z,1.70
2022-12-27T02:46:41.945Z,1.00
2022-12-27T02:52:22.869Z,0.70
2022-12-27T02:57:41.885Z,0.80
2022-12-27T03:03:30.497Z,0.70
2022-12-27T03:08:48.677Z,0.63
2022-12-27T03:14:31.207Z,0.67
2022-12-27T03:20:02.821Z,0.60
2022-12-27T03:25:28.290Z,0.90
2022-12-27T03:30:52.824Z,0.88
2022-12-27T03:36:25.563Z,0.73
2022-12-27T03:41:56.647Z,1.67
2022-12-27T03:47:14.174Z,0.77
2022-12-27T03:52:31.627Z,1.05
2022-12-27T03:57:39.135Z,0.77
2022-12-27T04:02:46.387Z,0.90
2022-12-27T04:08:12.095Z,1.10
2022-12-27T04:13:35.576Z,1.10
2022-12-27T04:18:59.282Z,0.77
2022-12-27T04:24:25.808Z,0.80
2022-12-27T04:29:49.749Z,1.02
2022-12-27T04:34:56.868Z,0.90
2022-12-27T04:40:21.983Z,1.40
2022-12-27T04:45:45.781Z,1.08
2022-12-27T04:51:09.764Z,1.15
2022-12-27T04:56:18.101Z,1.30
2022-12-27T05:01:42.179Z,1.10
2022-12-27T05:06:48.843Z,1.05
2022-12-27T05:12:14.319Z,1.45
2022-12-27T05:17:23.152Z,1.05
2022-12-27T05:23:01.998Z,1.88
2022-12-27T05:28:12.887Z,1.30
2022-12-27T05:33:19.301Z,1.60
2022-12-27T05:38:26.699Z,1.35
2022-12-27T05:43:35.659Z,1.50
2022-12-27T05:48:42.425Z,1.20
2022-12-27T05:53:50.210Z,0.95
2022-12-27T05:58:58.190Z,1.15
2022-12-27T06:04:04.705Z,1.27
2022-12-27T06:09:11.215Z,1.35
2022-12-27T06:14:19.540Z,1.52
2022-12-27T06:19:26.432Z,1.27
2022-12-27T06:24:33.119Z,1.25
2022-12-27T06:29:41.184Z,1.02
2022-12-27T06:34:47.798Z,1.45
2022-12-27T06:39:54.389Z,1.08
2022-12-27T06:45:02.178Z,1.50
2022-12-27T06:50:10.617Z,1.43
2022-12-27T06:55:17.369Z,1.05
2022-12-27T07:00:25.625Z,1.15
2022-12-27T07:05:33.546Z,1.63
2022-12-27T07:10:40.308Z,1.45
2022-12-27T07:15:49.088Z,1.35
2022-12-27T07:26:05.265Z,1.38
2022-12-27T07:31:16.923Z,1.30
2022-12-27T07:36:27.991Z,1.10
2022-12-27T07:41:34.972Z,1.13
2022-12-27T07:46:42.872Z,1.30
2022-12-27T07:51:49.459Z,1.23
2022-12-27T07:56:56.197Z,1.50
2022-12-27T08:02:07.133Z,1.30
2022-12-27T08:07:18.451Z,1.35
2022-12-27T08:12:25.196Z,1.90
2022-12-27T08:17:33.565Z,2.53
2022-12-27T08:22:40.222Z,2.17
2022-12-27T08:27:46.720Z,1.73
2022-12-27T08:32:54.493Z,2.70
2022-12-27T08:38:03.640Z,2.25
2022-12-27T08:43:10.684Z,1.92
2022-12-27T08:48:19.004Z,1.55
2022-12-27T08:53:25.985Z,1.55
2022-12-27T08:58:32.465Z,1.90
2022-12-27T09:03:40.365Z,1.67
2022-12-27T09:08:51.543Z,1.45
2022-12-27T09:14:00.633Z,1.70
2022-12-27T09:19:08.722Z,2.05
2022-12-27T09:24:16.205Z,1.65
2022-12-27T09:29:22.942Z,2.03
2022-12-27T09:34:31.403Z,1.70
2022-12-27T09:39:38.918Z,1.52
2022-12-27T09:44:54.580Z,1.50
2022-12-27T09:50:08.088Z,1.70
2022-12-27T09:55:22.563Z,1.65
2022-12-27T10:00:30.271Z,2.17
2022-12-27T10:05:56.245Z,1.73
2022-12-27T10:11:36.368Z,1.58
2022-12-27T10:16:51.220Z,1.70
2022-12-27T10:22:16.638Z,1.90
2022-12-27T10:27:27.004Z,1.60
2022-12-27T10:32:35.556Z,1.63
2022-12-27T10:37:44.178Z,1.40
2022-12-27T10:43:04.320Z,1.80
2022-12-27T10:48:19.951Z,1.98
2022-12-27T10:53:41.264Z,1.60
2022-12-27T10:58:56.428Z,2.10
2022-12-27T11:04:20.055Z,1.50
2022-12-27T11:09:32.127Z,2.42
2022-12-27T11:14:39.101Z,1.90
2022-12-27T11:19:49.113Z,2.05
2022-12-27T11:25:01.581Z,1.75
2022-12-27T11:30:22.508Z,1.42
2022-12-27T11:35:28.950Z,1.88
2022-12-27T11:40:37.087Z,1.08
2022-12-27T11:45:49.894Z,0.93
2022-12-27T11:51:18.147Z,1.52
2022-12-27T11:56:30.675Z,1.93
2022-12-27T12:02:26.906Z,1.88
2022-12-27T12:08:00.297Z,2.22
2022-12-27T12:13:42.061Z,2.63
2022-12-27T12:19:25.522Z,1.88
2022-12-27T12:25:17.462Z,2.80
2022-12-27T12:30:51.253Z,1.85
2022-12-27T12:36:27.047Z,1.65
2022-12-27T12:42:10.615Z,2.60
2022-12-27T12:47:41.539Z,1.98
2022-12-27T12:53:27.928Z,2.53
2022-12-27T12:58:50.285Z,2.45
2022-12-27T13:04:23.020Z,2.42
2022-12-27T13:09:52.371Z,2.58
2022-12-27T13:15:30.895Z,3.10
2022-12-27T13:21:01.915Z,2.97
2022-12-27T13:26:22.610Z,1.88
2022-12-27T13:31:43.522Z,3.70
2022-12-27T13:37:13.765Z,2.22
2022-12-27T13:43:01.128Z,2.05
2022-12-27T13:48:42.415Z,2.50
2022-12-27T13:54:25.605Z,3.42
2022-12-27T14:00:14.919Z,2.53
2022-12-27T14:06:18.288Z,2.45
2022-12-27T14:11:41.906Z,3.05
2022-12-27T14:17:07.719Z,2.45
2022-12-27T14:22:58.971Z,1.98
2022-12-27T14:28:59.294Z,2.05
2022-12-27T14:34:59.861Z,3.25
2022-12-27T14:40:41.715Z,3.70
2022-12-27T14:46:25.321Z,3.40
2022-12-27T14:52:48.198Z,3.95
2022-12-27T14:58:14.111Z,2.10
2022-12-27T15:03:41.556Z,2.70
2022-12-27T15:09:07.388Z,2.40
2022-12-27T15:15:02.599Z,2.42
2022-12-27T15:20:44.841Z,2.50
2022-12-27T15:26:16.922Z,3.10
2022-12-27T15:31:35.687Z,2.55
2022-12-27T15:36:47.154Z,2.42
2022-12-27T15:42:06.501Z,3.15
2022-12-27T15:47:44.727Z,2.75
2022-12-27T15:53:23.887Z,3.73
2022-12-27T15:58:30.976Z,2.17
2022-12-27T16:03:40.374Z,2.55
2022-12-27T16:09:09.036Z,3.35
2022-12-27T16:14:30.968Z,2.30
2022-12-27T16:20:13.542Z,1.90
2022-12-27T16:25:32.841Z,2.45
2022-12-27T16:30:46.457Z,2.22
2022-12-27T16:36:21.880Z,2.55
2022-12-27T16:42:00.863Z,2.60
2022-12-27T16:52:52.468Z,2.75
2022-12-27T17:03:50.001Z,3.55
2022-12-27T17:09:40.116Z,2.97
2022-12-27T17:14:48.378Z,3.00
2022-12-27T17:20:04.498Z,2.80
2022-12-27T17:25:23.277Z,3.92
2022-12-27T17:30:45.487Z,3.55
2022-12-27T17:36:16.539Z,2.85
2022-12-27T17:41:59.888Z,2.53
2022-12-27T17:47:27.712Z,2.30
2022-12-27T17:52:52.195Z,2.78
2022-12-27T17:57:59.988Z,2.90
2022-12-27T18:03:15.311Z,2.83
2022-12-27T18:08:30.848Z,2.90
2022-12-27T18:13:41.771Z,2.90
2022-12-27T18:18:53.027Z,3.05
2022-12-27T18:24:00.144Z,2.53
2022-12-27T18:29:11.993Z,3.58
2022-12-27T18:34:28.923Z,2.63
2022-12-27T18:39:40.721Z,3.05
2022-12-27T18:44:53.270Z,3.15
2022-12-27T18:50:07.143Z,3.03
2022-12-27T18:55:21.853Z,3.15
2022-12-27T19:00:31.285Z,2.67
2022-12-27T19:05:43.016Z,2.95
2022-12-27T19:10:53.169Z,2.67
2022-12-27T19:16:01.389Z,2.63
2022-12-27T19:21:17.140Z,2.80
2022-12-27T19:26:33.022Z,3.42
2022-12-27T19:31:43.691Z,2.53
2022-12-27T19:36:54.645Z,3.00
2022-12-27T19:42:08.499Z,3.20
2022-12-27T19:47:17.500Z,2.70
2022-12-27T19:52:28.159Z,3.38
2022-12-27T19:57:36.465Z,3.15
2022-12-27T20:02:44.245Z,2.90
2022-12-27T20:07:53.745Z,4.20
2022-12-27T20:13:02.209Z,3.67
2022-12-27T20:18:09.485Z,2.95
2022-12-27T20:23:21.470Z,3.28
2022-12-27T20:28:31.055Z,2.72
2022-12-27T20:33:38.961Z,2.72
2022-12-27T20:38:47.506Z,5.22
2022-12-27T20:44:01.367Z,3.38
2022-12-27T20:49:08.613Z,3.42
2022-12-27T20:54:18.145Z,4.15
2022-12-27T20:59:24.892Z,3.05
2022-12-27T21:04:33.391Z,3.10
2022-12-27T21:09:41.587Z,3.40
2022-12-27T21:14:50.805Z,3.60
2022-12-27T21:19:57.934Z,2.50
2022-12-27T21:25:08.888Z,2.78
2022-12-27T21:30:16.211Z,3.55
2022-12-27T21:35:22.866Z,2.60
2022-12-27T21:40:31.056Z,2.72
2022-12-27T21:45:38.381Z,3.23
2022-12-27T21:50:45.751Z,3.55
2022-12-27T21:56:00.371Z,2.70
2022-12-27T22:01:09.398Z,3.72
2022-12-27T22:06:18.274Z,3.22
2022-12-27T22:11:28.512Z,2.92
2022-12-27T22:16:37.715Z,3.00
2022-12-27T22:21:45.297Z,2.78
2022-12-27T22:26:53.366Z,3.60
2022-12-27T22:31:59.963Z,2.97
2022-12-27T22:37:06.619Z,3.25
2022-12-27T22:42:14.800Z,3.10
2022-12-27T22:47:28.678Z,3.80
2022-12-27T22:52:35.541Z,2.90
2022-12-27T22:57:44.128Z,3.80
2022-12-27T23:02:50.585Z,3.28
2022-12-27T23:08:05.388Z,3.15
2022-12-27T23:13:15.676Z,3.60
2022-12-27T23:18:22.283Z,4.07
2022-12-27T23:23:28.800Z,3.13
2022-12-27T23:28:39.255Z,3.85
2022-12-27T23:33:46.515Z,4.07
2022-12-27T23:38:53.434Z,3.70
2022-12-27T23:44:02.595Z,3.33
2022-12-27T23:49:09.299Z,3.10
2022-12-27T23:54:15.595Z,3.58
2022-12-27T23:59:23.396Z,4.47
